This is the latest recevied weather packets stored in our database for station/object KF0FSA. If no packets are shown the sender has not sent any weather packets the latest 1 day(s).
| Time | Temp. | Humidity | Pressure | Rain* | Wind** | Luminosity | Snow |
|---|---|---|---|---|---|---|---|
| 1778025552 | 9.44° C | 36% | 959.3 hPa | 0 mm | 2.68 m/s, 304° | 178 W/m² | - |
| 1778025252 | 9.44° C | 38% | 959.4 hPa | 0 mm | 2.68 m/s, 308° | 190 W/m² | - |
| 1778024953 | 9.44° C | 37% | 959.4 hPa | 0 mm | 2.68 m/s, 350° | 109 W/m² | - |
| 1778024652 | 9.44° C | 37% | 959.2 hPa | 0 mm | 2.68 m/s, 343° | 254 W/m² | - |
| 1778024352 | 9.44° C | 36% | 959.4 hPa | 0 mm | 2.68 m/s, 352° | 161 W/m² | - |
| 1778024053 | 9.44° C | 35% | 959.3 hPa | 0 mm | 2.68 m/s, 5° | 145 W/m² | - |
| 1778023752 | 9.44° C | 36% | 959.4 hPa | 0 mm | 3.13 m/s, 248° | 155 W/m² | - |
| 1778023453 | 9.44° C | 36% | 959.4 hPa | 0 mm | 3.13 m/s, 332° | 156 W/m² | - |
| 1778023153 | 10° C | 35% | 959.2 hPa | 0 mm | 3.13 m/s, 310° | 168 W/m² | - |
| 1778022849 | 10° C | 34% | 959.3 hPa | 0 mm | 3.13 m/s, 293° | 198 W/m² | - |
| 1778022549 | 10° C | 35% | 959.2 hPa | 0 mm | 2.68 m/s, 291° | 242 W/m² | - |
| 1778022247 | 10° C | 35% | 959.2 hPa | 0 mm | 3.13 m/s, 276° | 244 W/m² | - |
| 1778021946 | 9.44° C | 36% | 959.1 hPa | 0 mm | 3.58 m/s, 308° | 360 W/m² | - |
| 1778021647 | 10° C | 35% | 959.2 hPa | 0 mm | 3.13 m/s, 301° | 180 W/m² | - |
| 1778021348 | 10° C | 34% | 959.1 hPa | 0 mm | 3.13 m/s, 347° | 440 W/m² | - |
| 1778021171 | 10° C | 35% | 959.2 hPa | 0 mm | 2.68 m/s, 314° | 214 W/m² | - |
| 1778020752 | 10° C | 34% | 959.2 hPa | 0 mm | 2.68 m/s, 20° | 209 W/m² | - |
| 1778020447 | 10° C | 34% | 959.2 hPa | 0 mm | 2.68 m/s, 314° | 212 W/m² | - |
| 1778020147 | 10° C | 35% | 959 hPa | 0 mm | 2.24 m/s, 324° | 500 W/m² | - |
| 1778019847 | 10° C | 35% | 959.2 hPa | 0 mm | 2.24 m/s, 332° | 214 W/m² | - |
| 1778019547 | 10° C | 35% | 959.3 hPa | 0 mm | 2.68 m/s, 335° | 215 W/m² | - |
| 1778019246 | 10° C | 35% | 959.3 hPa | 0 mm | 2.68 m/s, 303° | 227 W/m² | - |
| 1778019072 | 10° C | 34% | 959.2 hPa | 0 mm | 3.13 m/s, 298° | 259 W/m² | - |
| 1778018648 | 10° C | 34% | 959.1 hPa | 0 mm | 3.13 m/s, 277° | 252 W/m² | - |
| 1778018345 | 10° C | 35% | 959.3 hPa | 0 mm | 3.13 m/s, 314° | 269 W/m² | - |
* Rain latest hour (hover to see other rain measurements)
** Current wind speed in m/s (hover to see current wind gust speed)